CheckWX is a tool to help pilots better visualize weather data.  It is not intended as a substitute for an official pre-flight weather briefing.

05:08:15 UTC

2J3 METAR
Louisville Municipal Airport
Louisville, Georgia, USA
Current

38 mins ago

K2J3 260430Z AUTO 07009KT 10SM SCT075 22/19 A3008 RMK AO2 T02220194
Observed
Aug-26 @ 04:30 UTC
Wind
  • 070° at 9 KTS
Visibility
10 SM
Flight Rules
VFR
Cloud Levels
  • Scattered at 7,500' AGL
Temperature
22°C / 72°F
Dewpoint
19°C / 66°F
Humidity
83%
Altimeter
30.08" Hg
Pressure
1018.62 hPa
Previous

58 mins ago

K2J3 260410Z AUTO 08007KT 10SM BKN075 23/20 A3009 RMK AO2 T02260196
Observed
Aug-26 @ 04:10 UTC
Wind
  • 080° at 7 KTS
Visibility
10 SM
Flight Rules
VFR
Cloud Levels
  • Broken at 7,500' AGL
Temperature
23°C / 73°F
Dewpoint
20°C / 68°F
Humidity
83%
Altimeter
30.09" Hg
Pressure
1018.92 hPa
Previous

1 hour ago

K2J3 260350Z AUTO 08008KT 10SM OVC075 23/20 A3008 RMK AO2 T02290199
Observed
Aug-26 @ 03:50 UTC
Wind
  • 080° at 8 KTS
Visibility
10 SM
Flight Rules
VFR
Cloud Levels
  • Overcast at 7,500' AGL
Temperature
23°C / 73°F
Dewpoint
20°C / 68°F
Humidity
83%
Altimeter
30.08" Hg
Pressure
1018.62 hPa